createdAt,value
2018-11-25T00:00:27.997Z,85.10
2018-11-25T00:01:28.007Z,84.44
2018-11-25T00:02:28.012Z,84.34
2018-11-25T00:03:28.021Z,84.34
2018-11-25T00:04:28.030Z,83.97
2018-11-25T00:05:28.032Z,82.54
2018-11-25T00:06:28.040Z,82.17
2018-11-25T00:07:34.607Z,81.51
2018-11-25T00:08:28.055Z,81.13
2018-11-25T00:09:28.066Z,81.32
2018-11-25T00:10:28.070Z,80.75
2018-11-25T00:11:28.082Z,80.94
2018-11-25T00:12:28.088Z,80.27
2018-11-25T00:13:28.093Z,80.46
2018-11-25T00:14:28.102Z,80.46
2018-11-25T00:15:28.113Z,79.80
2018-11-25T00:16:28.115Z,80.18
2018-11-25T00:17:28.122Z,80.27
2018-11-25T00:18:28.130Z,80.08
2018-11-25T00:19:28.137Z,79.52
2018-11-25T00:20:28.147Z,79.43
2018-11-25T00:21:28.152Z,79.24
2018-11-25T00:22:28.167Z,79.24
2018-11-25T00:23:28.167Z,79.61
2018-11-25T00:24:28.175Z,79.33
2018-11-25T00:25:28.181Z,79.52
2018-11-25T00:26:28.190Z,79.61
2018-11-25T00:27:28.197Z,79.14
2018-11-25T00:28:28.205Z,79.43
2018-11-25T00:29:28.214Z,79.52
2018-11-25T00:30:28.220Z,79.14
2018-11-25T00:31:28.227Z,78.48
2018-11-25T00:32:28.234Z,78.29
2018-11-25T00:33:28.241Z,79.61
2018-11-25T00:34:28.252Z,79.61
2018-11-25T00:35:28.262Z,79.80
2018-11-25T00:36:28.263Z,79.61
2018-11-25T00:37:28.272Z,79.43
2018-11-25T00:38:28.279Z,79.43
2018-11-25T00:39:28.286Z,80.18
2018-11-25T00:40:28.293Z,80.37
2018-11-25T00:41:28.300Z,80.75
2018-11-25T00:42:28.309Z,81.32
2018-11-25T00:43:28.317Z,82.07
2018-11-25T00:44:28.321Z,82.64
2018-11-25T00:45:28.331Z,83.30
2018-11-25T00:46:28.338Z,84.34
2018-11-25T00:47:28.344Z,84.06
2018-11-25T00:48:28.351Z,84.25
2018-11-25T00:49:28.359Z,84.63
2018-11-25T00:50:28.375Z,84.91
2018-11-25T00:51:28.377Z,84.72
2018-11-25T00:52:28.389Z,84.91
2018-11-25T00:53:28.390Z,85.47
2018-11-25T00:54:28.400Z,85.57
2018-11-25T00:55:28.405Z,84.81
2018-11-25T00:56:28.412Z,84.63
2018-11-25T00:57:28.419Z,84.44
2018-11-25T00:58:28.426Z,86.61
2018-11-25T00:59:28.431Z,85.85
2018-11-25T01:00:28.439Z,85.28
2018-11-25T01:01:28.444Z,85.38
2018-11-25T01:02:28.453Z,85.57
2018-11-25T01:03:28.461Z,85.00
2018-11-25T01:04:28.465Z,84.25
2018-11-25T01:05:28.476Z,83.30
2018-11-25T01:06:28.482Z,84.06
2018-11-25T01:07:28.487Z,83.78
2018-11-25T01:08:28.496Z,83.02
2018-11-25T01:09:28.505Z,83.02
2018-11-25T01:10:28.511Z,82.17
2018-11-25T01:11:28.516Z,82.17
2018-11-25T01:12:28.524Z,81.60
2018-11-25T01:13:28.533Z,81.70
2018-11-25T01:14:28.537Z,80.84
2018-11-25T01:15:28.547Z,80.75
2018-11-25T01:16:28.551Z,80.84
2018-11-25T01:17:28.560Z,81.41
2018-11-25T01:18:28.567Z,81.32
2018-11-25T01:19:28.576Z,83.30
2018-11-25T01:20:28.582Z,85.38
2018-11-25T01:21:28.592Z,85.66
2018-11-25T01:22:28.596Z,85.66
2018-11-25T01:23:28.605Z,85.28
2018-11-25T01:24:28.610Z,85.66
2018-11-25T01:25:28.617Z,84.81
2018-11-25T01:26:28.623Z,86.42
2018-11-25T01:27:28.632Z,85.66
2018-11-25T01:28:28.639Z,84.53
2018-11-25T01:29:28.646Z,85.00
2018-11-25T01:30:28.656Z,84.81
2018-11-25T01:31:28.661Z,84.53
2018-11-25T01:32:28.675Z,84.81
2018-11-25T01:33:28.672Z,84.44
2018-11-25T01:34:28.679Z,83.97
2018-11-25T01:35:28.687Z,83.97
2018-11-25T01:36:28.693Z,83.97
2018-11-25T01:37:28.704Z,84.11
2018-11-25T01:38:28.710Z,82.26
2018-11-25T01:39:28.716Z,81.79
2018-11-25T01:40:28.722Z,81.88
2018-11-25T01:41:28.729Z,81.51
2018-11-25T01:42:28.736Z,81.41
2018-11-25T01:43:28.744Z,81.60
2018-11-25T01:44:28.751Z,82.17
2018-11-25T01:45:28.760Z,81.41
2018-11-25T01:46:28.764Z,81.79
2018-11-25T01:47:28.772Z,83.02
2018-11-25T01:48:28.777Z,83.30
2018-11-25T01:49:28.785Z,83.30
2018-11-25T01:50:28.792Z,82.17
2018-11-25T01:51:28.803Z,81.51
2018-11-25T01:52:28.805Z,81.32
2018-11-25T01:53:28.812Z,80.56
2018-11-25T01:54:28.818Z,80.62
2018-11-25T01:55:28.826Z,80.65
2018-11-25T01:56:28.836Z,81.22
2018-11-25T01:57:28.841Z,81.13
2018-11-25T01:58:28.847Z,81.13
2018-11-25T01:59:28.853Z,81.03
2018-11-25T02:00:28.860Z,81.13
2018-11-25T02:01:28.873Z,81.32
2018-11-25T02:02:28.874Z,81.22
2018-11-25T02:03:28.881Z,81.18
2018-11-25T02:04:28.888Z,81.13
2018-11-25T02:05:28.908Z,82.03
2018-11-25T02:06:28.904Z,83.54
2018-11-25T02:07:28.910Z,84.39
2018-11-25T02:08:28.916Z,84.68
2018-11-25T02:09:28.923Z,85.72
2018-11-25T02:10:28.928Z,85.62
2018-11-25T02:11:28.939Z,86.00
2018-11-25T02:12:28.947Z,86.57
2018-11-25T02:13:28.952Z,86.76
2018-11-25T02:14:28.957Z,86.76
2018-11-25T02:15:28.966Z,86.94
2018-11-25T02:16:28.971Z,87.13
2018-11-25T02:17:28.979Z,86.94
2018-11-25T02:18:28.985Z,87.70
2018-11-25T02:19:28.989Z,87.98
2018-11-25T02:20:28.997Z,87.89
2018-11-25T02:21:29.004Z,88.27
2018-11-25T02:22:29.120Z,88.65
2018-11-25T02:23:29.017Z,89.12
2018-11-25T02:24:29.021Z,89.78
2018-11-25T02:25:29.029Z,91.20
2018-11-25T02:26:29.037Z,91.77
2018-11-25T02:27:29.044Z,91.77
2018-11-25T02:28:29.049Z,92.05
2018-11-25T02:29:29.054Z,91.86
2018-11-25T02:30:29.065Z,91.86
2018-11-25T02:31:29.068Z,91.77
2018-11-25T02:32:29.075Z,92.14
2018-11-25T02:33:29.083Z,92.24
2018-11-25T02:34:29.089Z,93.18
2018-11-25T02:35:29.095Z,93.28
2018-11-25T02:36:29.101Z,93.66
2018-11-25T02:37:29.109Z,93.84
2018-11-25T02:38:29.114Z,92.99
2018-11-25T02:39:29.124Z,93.18
2018-11-25T02:40:29.126Z,93.75
2018-11-25T02:41:29.135Z,93.75
2018-11-25T02:42:29.141Z,93.75
2018-11-25T02:43:29.148Z,93.66
2018-11-25T02:44:29.157Z,93.18
2018-11-25T02:45:29.160Z,91.77
2018-11-25T02:46:29.168Z,91.58
2018-11-25T02:47:29.172Z,89.78
2018-11-25T02:48:29.178Z,87.79
2018-11-25T02:49:29.188Z,86.57
2018-11-25T02:50:29.194Z,85.81
2018-11-25T02:51:29.199Z,84.96
2018-11-25T02:52:29.205Z,84.39
2018-11-25T02:53:29.211Z,85.24
2018-11-25T02:54:29.219Z,84.77
2018-11-25T02:55:29.228Z,84.86
2018-11-25T02:56:29.232Z,84.96
2018-11-25T02:57:29.238Z,84.58
2018-11-25T02:58:29.246Z,84.49
2018-11-25T02:59:29.252Z,84.39
2018-11-25T03:00:29.259Z,84.86
2018-11-25T03:01:29.264Z,85.62
2018-11-25T03:02:29.270Z,86.29
2018-11-25T03:03:29.278Z,86.76
2018-11-25T03:04:29.284Z,87.23
2018-11-25T03:05:29.289Z,87.98
2018-11-25T03:06:29.298Z,89.40
2018-11-25T03:07:29.303Z,89.78
2018-11-25T03:08:29.309Z,90.16
2018-11-25T03:09:29.319Z,89.78
2018-11-25T03:10:29.323Z,89.50
2018-11-25T03:11:29.330Z,90.06
2018-11-25T03:12:29.340Z,90.35
2018-11-25T03:13:29.342Z,91.29
2018-11-25T03:14:29.348Z,92.52
2018-11-25T03:15:29.357Z,92.33
2018-11-25T03:16:29.366Z,91.96
2018-11-25T03:17:29.370Z,91.86
2018-11-25T03:18:29.374Z,91.01
2018-11-25T03:19:29.381Z,91.39
2018-11-25T03:20:29.387Z,91.67
2018-11-25T03:21:29.395Z,92.43
2018-11-25T03:22:29.401Z,92.99
2018-11-25T03:23:29.407Z,93.09
2018-11-25T03:24:29.415Z,93.28
2018-11-25T03:25:29.421Z,93.18
2018-11-25T03:26:29.427Z,92.71
2018-11-25T03:27:29.433Z,92.61
2018-11-25T03:28:29.440Z,92.52
2018-11-25T03:29:29.447Z,91.96
2018-11-25T03:30:29.455Z,91.29
2018-11-25T03:31:29.462Z,91.20
2018-11-25T03:32:29.466Z,90.63
2018-11-25T03:33:29.477Z,89.97
2018-11-25T03:34:29.482Z,89.87
2018-11-25T03:35:29.487Z,89.12
2018-11-25T03:36:29.491Z,88.46
2018-11-25T03:37:29.501Z,88.36
2018-11-25T03:38:29.507Z,88.08
2018-11-25T03:39:29.513Z,87.79
2018-11-25T03:40:29.521Z,88.65
2018-11-25T03:41:29.526Z,89.12
2018-11-25T03:42:29.533Z,91.01
2018-11-25T03:43:29.539Z,91.67
2018-11-25T03:44:29.545Z,91.48
2018-11-25T03:45:29.552Z,92.14
2018-11-25T03:46:29.556Z,92.99
2018-11-25T03:47:29.565Z,93.84
2018-11-25T03:48:29.571Z,93.66
2018-11-25T03:49:29.576Z,93.66
2018-11-25T03:50:29.587Z,93.47
2018-11-25T03:51:29.592Z,94.03
2018-11-25T03:52:29.596Z,93.09
2018-11-25T03:53:29.603Z,92.90
2018-11-25T03:54:29.610Z,92.05
2018-11-25T03:55:29.617Z,91.96
2018-11-25T03:56:29.624Z,91.86
2018-11-25T03:57:29.631Z,91.77
2018-11-25T03:58:29.636Z,91.96
2018-11-25T03:59:29.644Z,91.96
2018-11-25T04:00:29.648Z,92.52
2018-11-25T04:01:29.655Z,93.47
2018-11-25T04:02:29.661Z,93.84
2018-11-25T04:03:29.668Z,94.22
2018-11-25T04:04:29.673Z,93.94
2018-11-25T04:05:29.681Z,93.18
2018-11-25T04:06:29.688Z,92.90
2018-11-25T04:07:29.695Z,92.14
2018-11-25T04:08:29.705Z,91.86
2018-11-25T04:09:29.705Z,91.29
2018-11-25T04:10:29.713Z,91.01
2018-11-25T04:11:29.728Z,90.73
2018-11-25T04:12:29.724Z,91.96
2018-11-25T04:13:29.732Z,92.71
2018-11-25T04:14:29.738Z,92.99
2018-11-25T04:15:29.744Z,93.75
2018-11-25T04:16:29.758Z,94.13
2018-11-25T04:17:29.758Z,93.84
2018-11-25T04:18:29.778Z,94.41
2018-11-25T04:19:29.801Z,93.56
2018-11-25T04:20:29.776Z,95.26
2018-11-25T04:21:29.789Z,95.54
2018-11-25T04:22:29.789Z,94.98
2018-11-25T04:23:29.796Z,94.13
2018-11-25T04:24:29.805Z,93.94
2018-11-25T04:25:29.810Z,95.07
2018-11-25T04:26:29.817Z,95.64
2018-11-25T04:27:30.006Z,94.79
2018-11-25T04:28:29.828Z,94.60
2018-11-25T04:29:29.837Z,93.84
2018-11-25T04:30:29.841Z,93.56
2018-11-25T04:31:29.854Z,93.84
2018-11-25T04:32:29.855Z,93.28
2018-11-25T04:33:29.861Z,93.18
2018-11-25T04:34:29.868Z,92.71
2018-11-25T04:35:29.878Z,92.90
2018-11-25T04:36:29.880Z,92.71
2018-11-25T04:37:29.890Z,92.99
2018-11-25T04:38:29.894Z,93.28
2018-11-25T04:39:29.903Z,93.47
2018-11-25T04:40:29.909Z,93.84
2018-11-25T04:41:29.915Z,93.84
2018-11-25T04:42:29.921Z,94.03
2018-11-25T04:43:29.924Z,93.84
2018-11-25T04:44:29.935Z,92.90
2018-11-25T04:45:29.941Z,92.52
2018-11-25T04:46:29.947Z,91.86
2018-11-25T04:47:29.951Z,92.90
2018-11-25T04:48:29.960Z,92.14
2018-11-25T04:49:29.966Z,91.10
2018-11-25T04:50:29.970Z,90.73
2018-11-25T04:51:29.981Z,90.06
2018-11-25T04:52:29.987Z,90.35
2018-11-25T04:53:29.990Z,89.69
2018-11-25T04:54:29.995Z,91.10
2018-11-25T04:55:30.010Z,91.77
2018-11-25T04:56:30.010Z,92.80
2018-11-25T04:57:30.020Z,92.99
2018-11-25T04:58:30.029Z,93.09
2018-11-25T04:59:30.032Z,91.96
2018-11-25T05:00:30.037Z,91.67
2018-11-25T05:01:30.043Z,90.44
2018-11-25T05:02:30.048Z,89.87
2018-11-25T05:03:30.053Z,90.06
2018-11-25T05:04:30.063Z,89.31
2018-11-25T05:05:30.069Z,89.31
2018-11-25T05:06:30.073Z,88.93
2018-11-25T05:07:30.078Z,88.36
2018-11-25T05:08:30.085Z,88.65
2018-11-25T05:09:30.092Z,87.98
2018-11-25T05:10:30.100Z,88.55
2018-11-25T05:11:30.107Z,88.74
2018-11-25T05:12:30.109Z,88.93
2018-11-25T05:13:30.119Z,88.84
2018-11-25T05:14:30.125Z,88.93
2018-11-25T05:15:30.131Z,89.22
2018-11-25T05:16:30.138Z,89.97
2018-11-25T05:17:30.262Z,90.73
2018-11-25T05:18:30.150Z,91.39
2018-11-25T05:19:30.156Z,92.14
2018-11-25T05:20:30.161Z,92.52
2018-11-25T05:21:30.170Z,93.18
2018-11-25T05:22:30.176Z,92.90
2018-11-25T05:23:30.181Z,91.86
2018-11-25T05:24:30.189Z,92.14
2018-11-25T05:25:30.195Z,91.20
2018-11-25T05:26:30.201Z,91.48
2018-11-25T05:27:30.207Z,90.73
2018-11-25T05:28:30.213Z,90.06
2018-11-25T05:29:30.224Z,89.97
2018-11-25T05:30:30.227Z,89.97
2018-11-25T05:31:30.233Z,89.12
2018-11-25T05:32:30.239Z,89.12
2018-11-25T05:33:30.250Z,88.84
2018-11-25T05:34:30.254Z,87.79
2018-11-25T05:35:30.260Z,87.89
2018-11-25T05:36:30.270Z,88.27
2018-11-25T05:37:30.272Z,88.55
2018-11-25T05:38:30.278Z,88.08
2018-11-25T05:39:30.286Z,87.89
2018-11-25T05:40:30.292Z,87.61
2018-11-25T05:41:30.297Z,87.79
2018-11-25T05:42:30.308Z,87.32
2018-11-25T05:43:30.311Z,86.94
2018-11-25T05:44:30.314Z,86.94
2018-11-25T05:45:30.323Z,87.04
2018-11-25T05:46:30.334Z,87.13
2018-11-25T05:47:30.335Z,87.89
2018-11-25T05:48:30.342Z,89.50
2018-11-25T05:49:36.380Z,89.97
2018-11-25T05:50:30.355Z,89.78
2018-11-25T05:51:30.361Z,89.87
2018-11-25T05:52:30.366Z,89.12
2018-11-25T05:53:30.373Z,88.74
2018-11-25T05:54:30.381Z,88.08
2018-11-25T05:55:30.386Z,88.55
2018-11-25T05:56:30.392Z,88.36
2018-11-25T05:57:30.399Z,87.98
2018-11-25T05:58:30.407Z,87.98
2018-11-25T05:59:30.412Z,87.79
2018-11-25T06:00:30.420Z,87.51
2018-11-25T06:01:30.423Z,87.32
2018-11-25T06:02:30.430Z,88.08
2018-11-25T06:03:30.438Z,88.84
2018-11-25T06:04:30.442Z,88.74
2018-11-25T06:05:30.449Z,88.74
2018-11-25T06:06:30.498Z,88.55
2018-11-25T06:07:30.463Z,87.89
2018-11-25T06:08:30.467Z,88.46
2018-11-25T06:09:30.476Z,87.89
2018-11-25T06:10:30.485Z,88.17
2018-11-25T06:11:30.487Z,87.79
2018-11-25T06:12:30.495Z,86.76
2018-11-25T06:13:30.499Z,86.10
2018-11-25T06:14:30.505Z,86.38
2018-11-25T06:15:30.513Z,85.05
2018-11-25T06:16:30.521Z,84.68
2018-11-25T06:17:30.524Z,83.54
2018-11-25T06:18:30.530Z,83.64
2018-11-25T06:19:30.541Z,83.54
2018-11-25T06:20:30.550Z,83.45
2018-11-25T06:21:30.551Z,83.83
2018-11-25T06:22:30.557Z,83.64
2018-11-25T06:23:30.562Z,83.54
2018-11-25T06:24:30.568Z,83.26
2018-11-25T06:25:30.575Z,82.79
2018-11-25T06:26:30.580Z,83.54
2018-11-25T06:27:38.014Z,83.54
2018-11-25T06:28:30.594Z,82.98
2018-11-25T06:29:30.598Z,82.50
2018-11-25T06:30:30.606Z,82.50
2018-11-25T06:31:30.615Z,81.56
2018-11-25T06:32:30.620Z,81.74
2018-11-25T06:33:30.625Z,80.80
2018-11-25T06:34:30.632Z,81.18
2018-11-25T06:35:30.638Z,80.80
2018-11-25T06:36:30.644Z,80.71
2018-11-25T06:37:30.652Z,80.80
2018-11-25T06:38:30.660Z,81.18
2018-11-25T06:39:30.665Z,81.18
2018-11-25T06:40:30.669Z,83.26
2018-11-25T06:41:34.160Z,84.01
2018-11-25T06:42:30.686Z,84.86
2018-11-25T06:43:30.691Z,84.20
2018-11-25T06:44:30.696Z,84.30
2018-11-25T06:45:30.703Z,84.20
2018-11-25T06:46:30.713Z,84.11
2018-11-25T06:47:30.725Z,83.45
2018-11-25T06:48:30.722Z,82.88
2018-11-25T06:49:30.729Z,84.39
2018-11-25T06:50:30.735Z,85.24
2018-11-25T06:51:30.741Z,86.10
2018-11-25T06:52:30.750Z,86.10
2018-11-25T06:53:30.754Z,85.62
2018-11-25T06:54:30.759Z,83.54
2018-11-25T06:55:30.768Z,83.26
2018-11-25T06:56:30.781Z,81.84
2018-11-25T06:57:30.780Z,81.37
2018-11-25T06:58:30.787Z,79.95
2018-11-25T06:59:30.792Z,78.72
2018-11-25T07:00:30.796Z,78.63
2018-11-25T07:01:30.801Z,79.48
2018-11-25T07:02:30.812Z,81.18
2018-11-25T07:03:30.824Z,81.18
2018-11-25T07:04:30.824Z,81.18
2018-11-25T07:05:30.830Z,80.52
2018-11-25T07:06:30.837Z,80.33
2018-11-25T07:07:30.844Z,79.95
2018-11-25T07:08:30.850Z,78.16
2018-11-25T07:09:30.857Z,78.34
2018-11-25T07:10:30.864Z,77.69
2018-11-25T07:11:30.870Z,76.26
2018-11-25T07:12:30.874Z,75.04
2018-11-25T07:13:30.880Z,74.19
2018-11-25T07:14:30.888Z,73.14
2018-11-25T07:15:30.897Z,72.96
2018-11-25T07:16:30.900Z,72.49
2018-11-25T07:17:30.917Z,72.77
2018-11-25T07:18:30.915Z,72.77
2018-11-25T07:19:30.927Z,72.77
2018-11-25T07:20:30.929Z,72.39
2018-11-25T07:21:30.933Z,72.02
2018-11-25T07:22:30.939Z,71.64
2018-11-25T07:23:30.949Z,71.45
2018-11-25T07:24:30.953Z,71.54
2018-11-25T07:25:30.960Z,71.83
2018-11-25T07:26:30.969Z,71.45
2018-11-25T07:27:30.973Z,70.88
2018-11-25T07:28:30.979Z,70.12
2018-11-25T07:29:30.987Z,69.18
2018-11-25T07:30:30.994Z,69.18
2018-11-25T07:31:30.999Z,69.46
2018-11-25T07:32:31.006Z,69.09
2018-11-25T07:33:31.014Z,69.56
2018-11-25T07:34:31.018Z,69.56
2018-11-25T07:35:31.026Z,69.37
2018-11-25T07:36:31.030Z,69.18
2018-11-25T07:37:31.039Z,69.18
2018-11-25T07:38:31.046Z,68.80
2018-11-25T07:39:31.055Z,69.46
2018-11-25T07:40:31.058Z,71.07
2018-11-25T07:41:31.067Z,72.20
2018-11-25T07:42:31.072Z,74.19
2018-11-25T07:43:31.079Z,75.04
2018-11-25T07:44:31.085Z,76.55
2018-11-25T07:45:31.136Z,77.31
2018-11-25T07:46:31.113Z,78.16
2018-11-25T07:47:31.103Z,77.97
2018-11-25T07:48:31.110Z,78.34
2018-11-25T07:49:31.120Z,79.19
2018-11-25T07:50:31.123Z,79.10
2018-11-25T07:51:31.131Z,79.67
2018-11-25T07:52:31.135Z,79.95
2018-11-25T07:53:31.145Z,79.48
2018-11-25T07:54:31.152Z,79.29
2018-11-25T07:55:31.156Z,78.81
2018-11-25T07:56:31.164Z,77.21
2018-11-25T07:57:31.169Z,76.64
2018-11-25T07:58:31.177Z,76.26
2018-11-25T07:59:31.193Z,76.36
2018-11-25T08:00:31.189Z,76.93
2018-11-25T08:01:31.196Z,76.64
2018-11-25T08:02:31.203Z,76.83
2018-11-25T08:03:31.209Z,76.93
2018-11-25T08:04:31.217Z,77.59
2018-11-25T08:05:31.223Z,78.81
2018-11-25T08:06:31.228Z,79.00
2018-11-25T08:07:31.236Z,79.38
2018-11-25T08:08:31.261Z,78.53
2018-11-25T08:09:31.254Z,76.83
2018-11-25T08:10:31.255Z,75.64
2018-11-25T08:11:31.262Z,74.47
2018-11-25T08:12:31.268Z,73.33
2018-11-25T08:13:31.274Z,72.58
2018-11-25T08:14:31.280Z,71.45
2018-11-25T08:15:31.288Z,71.39
2018-11-25T08:16:31.296Z,71.48
2018-11-25T08:17:31.304Z,72.80
2018-11-25T08:18:31.308Z,74.41
2018-11-25T08:19:31.313Z,73.94
2018-11-25T08:20:31.319Z,73.47
2018-11-25T08:21:31.326Z,73.66
2018-11-25T08:22:31.335Z,75.07
2018-11-25T08:23:31.339Z,74.41
2018-11-25T08:24:31.346Z,74.22
2018-11-25T08:25:31.365Z,73.75
2018-11-25T08:26:31.360Z,73.47
2018-11-25T08:27:31.375Z,73.37
2018-11-25T08:28:31.374Z,73.28
2018-11-25T08:29:31.381Z,72.52
2018-11-25T08:30:31.387Z,70.35
2018-11-25T08:31:31.394Z,69.68
2018-11-25T08:32:31.400Z,69.49
2018-11-25T08:33:31.408Z,69.49
2018-11-25T08:34:31.417Z,69.59
2018-11-25T08:35:31.421Z,69.40
2018-11-25T08:36:31.430Z,69.12
2018-11-25T08:37:31.433Z,68.84
2018-11-25T08:38:31.447Z,68.74
2018-11-25T08:39:31.452Z,68.93
2018-11-25T08:40:31.468Z,68.17
2018-11-25T08:41:31.462Z,67.55
2018-11-25T08:42:31.478Z,67.22
2018-11-25T08:43:31.478Z,66.98
2018-11-25T08:44:31.483Z,66.41
2018-11-25T08:45:31.491Z,68.40
2018-11-25T08:46:31.499Z,68.30
2018-11-25T08:47:31.509Z,67.83
2018-11-25T08:48:31.517Z,67.11
2018-11-25T08:49:31.520Z,64.26
2018-11-25T08:50:31.529Z,63.98
2018-11-25T08:51:32.118Z,61.33
2018-11-25T08:52:31.544Z,61.52
2018-11-25T08:53:31.550Z,61.05
2018-11-25T08:54:31.561Z,59.72
2018-11-25T08:55:31.563Z,58.59
2018-11-25T08:56:31.571Z,58.11
2018-11-25T08:57:31.579Z,60.29
2018-11-25T08:58:31.593Z,60.61
2018-11-25T08:59:31.593Z,56.88
2018-11-25T09:00:31.602Z,57.20
2018-11-25T09:01:31.607Z,57.67
2018-11-25T09:02:31.617Z,57.86
2018-11-25T09:03:31.622Z,55.49
2018-11-25T09:04:31.630Z,55.21
2018-11-25T09:05:31.638Z,54.55
2018-11-25T09:06:31.645Z,53.59
2018-11-25T09:07:31.651Z,55.58
2018-11-25T09:08:31.659Z,56.34
2018-11-25T09:09:31.670Z,54.45
2018-11-25T09:10:31.675Z,54.93
2018-11-25T09:11:31.682Z,55.05
2018-11-25T09:12:31.688Z,53.34
2018-11-25T09:13:31.698Z,54.95
2018-11-25T09:14:31.708Z,53.72
2018-11-25T09:15:31.717Z,53.81
2018-11-25T09:16:31.723Z,53.65
2018-11-25T09:17:31.728Z,52.80
2018-11-25T09:18:31.737Z,55.17
2018-11-25T09:19:31.743Z,53.75
2018-11-25T09:20:31.748Z,53.65
2018-11-25T09:21:31.761Z,53.46
2018-11-25T09:22:31.768Z,51.66
2018-11-25T09:23:31.776Z,51.09
2018-11-25T09:24:31.782Z,50.97
2018-11-25T09:25:31.789Z,51.82
2018-11-25T09:26:31.797Z,52.96
2018-11-25T09:27:31.809Z,53.84
2018-11-25T09:28:31.818Z,53.18
2018-11-25T09:29:31.823Z,52.33
2018-11-25T09:30:31.830Z,51.57
2018-11-25T09:31:31.839Z,51.57
2018-11-25T09:32:31.845Z,51.09
2018-11-25T09:33:31.855Z,51.76
2018-11-25T09:34:31.862Z,51.66
2018-11-25T09:35:31.875Z,51.57
2018-11-25T09:36:31.887Z,51.95
2018-11-25T09:37:31.889Z,51.95
2018-11-25T09:38:31.900Z,51.57
2018-11-25T09:39:31.910Z,52.35
2018-11-25T09:40:31.922Z,50.71
2018-11-25T09:41:31.923Z,50.71
2018-11-25T09:42:31.931Z,49.86
2018-11-25T09:43:31.941Z,50.90
2018-11-25T09:44:31.951Z,51.31
2018-11-25T09:45:31.954Z,50.55
2018-11-25T09:46:31.967Z,49.98
2018-11-25T09:47:31.974Z,48.84
2018-11-25T09:48:31.985Z,49.51
2018-11-25T09:49:31.993Z,50.07
2018-11-25T09:50:32.001Z,50.07
2018-11-25T09:51:32.010Z,50.57
2018-11-25T09:52:32.017Z,48.94
2018-11-25T09:53:32.029Z,48.68
2018-11-25T09:54:32.038Z,48.11
2018-11-25T09:55:32.045Z,47.16
2018-11-25T09:56:32.055Z,48.39
2018-11-25T09:57:32.069Z,48.11
2018-11-25T09:58:32.071Z,47.47
2018-11-25T09:59:32.082Z,46.78
2018-11-25T10:00:32.093Z,46.40
2018-11-25T10:01:32.103Z,46.78
2018-11-25T10:02:32.111Z,46.30
2018-11-25T10:03:32.125Z,45.64
2018-11-25T10:04:32.138Z,46.69
2018-11-25T10:05:32.139Z,46.97
2018-11-25T10:06:32.152Z,46.69
2018-11-25T10:07:32.160Z,46.11
2018-11-25T10:08:32.170Z,46.30
2018-11-25T10:09:32.180Z,46.88
2018-11-25T10:10:32.193Z,46.90
2018-11-25T10:11:32.203Z,46.33
2018-11-25T10:12:32.212Z,45.57
2018-11-25T10:13:32.220Z,45.64
2018-11-25T10:14:32.233Z,46.49
2018-11-25T10:15:32.244Z,46.40
2018-11-25T10:16:32.304Z,46.88
2018-11-25T10:17:32.264Z,47.25
2018-11-25T10:18:32.271Z,47.06
2018-11-25T10:19:32.284Z,47.25
2018-11-25T10:20:32.307Z,46.94
2018-11-25T10:21:32.304Z,46.94
2018-11-25T10:22:32.312Z,48.30
2018-11-25T10:23:32.323Z,47.63
2018-11-25T10:24:32.336Z,47.25
2018-11-25T10:25:32.346Z,46.47
2018-11-25T10:26:32.355Z,47.34
2018-11-25T10:27:32.368Z,47.16
2018-11-25T10:28:32.373Z,47.23
2018-11-25T10:29:32.388Z,47.32
2018-11-25T10:30:32.396Z,48.18
2018-11-25T10:31:32.407Z,48.56
2018-11-25T10:32:32.420Z,47.30
2018-11-25T10:33:32.429Z,47.77
2018-11-25T10:34:32.442Z,49.51
2018-11-25T10:35:32.451Z,49.03
2018-11-25T10:36:32.460Z,47.63
2018-11-25T10:37:32.469Z,46.85
2018-11-25T10:38:32.490Z,47.25
2018-11-25T10:39:32.491Z,46.88
2018-11-25T10:40:32.506Z,46.11
2018-11-25T10:41:32.513Z,46.69
2018-11-25T10:42:32.525Z,46.30
2018-11-25T10:43:32.536Z,46.59
2018-11-25T10:44:32.543Z,47.66
2018-11-25T10:45:32.559Z,46.49
2018-11-25T10:46:32.564Z,46.21
2018-11-25T10:47:32.577Z,47.56
2018-11-25T10:48:32.592Z,46.02
2018-11-25T10:49:32.596Z,45.33
2018-11-25T10:50:32.611Z,46.97
2018-11-25T10:51:32.679Z,46.59
2018-11-25T10:52:32.631Z,45.64
2018-11-25T10:53:32.646Z,46.69
2018-11-25T10:54:32.656Z,46.66
2018-11-25T10:55:32.662Z,46.30
2018-11-25T10:56:32.674Z,47.63
2018-11-25T10:57:32.680Z,46.80
2018-11-25T10:58:32.701Z,46.21
2018-11-25T10:59:32.710Z,46.30
2018-11-25T11:00:32.717Z,46.59
2018-11-25T11:01:32.724Z,46.30
2018-11-25T11:02:32.740Z,47.06
2018-11-25T11:03:32.748Z,47.16
2018-11-25T11:04:32.759Z,46.99
2018-11-25T11:05:32.774Z,45.83
2018-11-25T11:06:32.778Z,45.26
2018-11-25T11:07:32.791Z,46.21
2018-11-25T11:08:32.799Z,46.69
2018-11-25T11:09:32.814Z,46.19
2018-11-25T11:10:32.820Z,46.56
2018-11-25T11:11:32.834Z,48.20
2018-11-25T11:12:32.843Z,46.97
2018-11-25T11:13:32.854Z,47.34
2018-11-25T11:14:32.870Z,48.20
2018-11-25T11:15:32.880Z,47.28
2018-11-25T11:16:32.884Z,46.90
2018-11-25T11:17:32.900Z,45.95
2018-11-25T11:18:32.906Z,45.95
2018-11-25T11:19:32.918Z,46.23
2018-11-25T11:20:32.928Z,45.76
2018-11-25T11:21:32.939Z,45.54
2018-11-25T11:22:32.950Z,45.64
2018-11-25T11:23:32.960Z,45.85
2018-11-25T11:24:32.969Z,45.38
2018-11-25T11:25:32.982Z,45.31
2018-11-25T11:26:32.992Z,45.40
2018-11-25T11:27:33.003Z,44.54
2018-11-25T11:28:33.015Z,44.53
2018-11-25T11:29:33.025Z,44.71
2018-11-25T11:30:33.040Z,45.09
2018-11-25T11:31:33.049Z,45.19
2018-11-25T11:32:33.059Z,45.28
2018-11-25T11:33:33.071Z,45.50
2018-11-25T11:34:33.086Z,44.54
2018-11-25T11:35:33.094Z,43.79
2018-11-25T11:36:33.107Z,44.07
2018-11-25T11:37:33.120Z,43.69
2018-11-25T11:38:33.129Z,44.43
2018-11-25T11:39:33.141Z,45.73
2018-11-25T11:40:33.153Z,46.21
2018-11-25T11:41:33.163Z,47.28
2018-11-25T11:42:33.176Z,46.92
2018-11-25T11:43:33.186Z,45.87
2018-11-25T11:44:33.196Z,45.66
2018-11-25T11:45:33.209Z,44.64
2018-11-25T11:46:33.220Z,44.83
2018-11-25T11:47:33.236Z,44.73
2018-11-25T11:48:33.243Z,44.54
2018-11-25T11:49:33.256Z,44.53
2018-11-25T11:50:33.268Z,45.00
2018-11-25T11:51:33.282Z,45.40
2018-11-25T11:52:33.290Z,45.21
2018-11-25T11:53:33.304Z,44.07
2018-11-25T11:54:33.314Z,45.28
2018-11-25T11:55:33.328Z,45.68
2018-11-25T11:56:39.937Z,45.31
2018-11-25T11:57:33.352Z,44.45
2018-11-25T11:58:33.360Z,44.57
2018-11-25T11:59:33.372Z,43.69
2018-11-25T12:00:33.385Z,43.98
2018-11-25T12:01:33.403Z,44.76
2018-11-25T12:02:33.410Z,43.12
2018-11-25T12:03:33.423Z,43.21
2018-11-25T12:04:33.434Z,44.35
2018-11-25T12:05:33.446Z,43.98
2018-11-25T12:06:33.459Z,45.42
2018-11-25T12:07:33.471Z,45.23
2018-11-25T12:08:33.489Z,44.59
2018-11-25T12:09:33.495Z,43.83
2018-11-25T12:10:33.507Z,41.76
2018-11-25T12:11:33.520Z,40.52
2018-11-25T12:12:33.530Z,41.97
2018-11-25T12:13:33.544Z,39.31
2018-11-25T12:14:33.557Z,38.90
2018-11-25T12:15:33.570Z,39.76
2018-11-25T12:16:33.579Z,40.50
2018-11-25T12:17:33.593Z,41.69
2018-11-25T12:18:33.604Z,43.31
2018-11-25T12:19:33.618Z,44.73
2018-11-25T12:20:33.632Z,45.33
2018-11-25T12:21:33.650Z,45.33
2018-11-25T12:22:33.657Z,43.93
2018-11-25T12:23:33.670Z,42.29
2018-11-25T12:24:33.788Z,41.81
2018-11-25T12:25:33.695Z,42.19
2018-11-25T12:26:33.715Z,43.43
2018-11-25T12:27:33.722Z,43.71
2018-11-25T12:28:33.737Z,43.38
2018-11-25T12:29:33.745Z,45.31
2018-11-25T12:30:33.763Z,44.45
2018-11-25T12:31:33.773Z,43.27
2018-11-25T12:32:33.784Z,44.62
2018-11-25T12:33:33.796Z,44.14
2018-11-25T12:34:33.809Z,44.26
2018-11-25T12:35:33.824Z,44.07
2018-11-25T12:36:33.835Z,42.93
2018-11-25T12:37:36.085Z,42.65
2018-11-25T12:38:33.862Z,44.26
2018-11-25T12:39:33.875Z,44.47
2018-11-25T12:40:33.885Z,45.12
2018-11-25T12:41:33.901Z,45.33
2018-11-25T12:42:33.915Z,44.67
2018-11-25T12:43:33.926Z,43.16
2018-11-25T12:44:33.933Z,42.97
2018-11-25T12:45:33.947Z,43.07
2018-11-25T12:46:34.027Z,43.26
2018-11-25T12:47:33.972Z,42.76
2018-11-25T12:48:33.984Z,42.83
2018-11-25T12:49:33.997Z,44.07
2018-11-25T12:50:34.012Z,44.64
2018-11-25T12:51:34.027Z,44.76
2018-11-25T12:52:34.037Z,44.38